Time;durP1;ratioP1;P1;durP2;ratioP2;P2;SDS_P1;SDS_P2;PMS_P1;PMS_P2;Temp;Humidity;BMP_temperature;BMP_pressure;BME280_temperature;BME280_humidity;BME280_pressure;Samples;Min_cycle;Max_cycle;Signal;HPM_P1;HPM_P2
2024/01/12 00:02:16;;;;;;;12.13;5.00;;;-4.80;64.00;;;;;;5050421;28;20032;-72
2024/01/12 00:04:42;;;;;;;13.63;7.60;;;-4.80;64.20;;;;;;5051358;28;20033;-72
2024/01/12 00:07:08;;;;;;;6.65;4.20;;;-4.80;64.00;;;;;;5033089;28;20512;-73
2024/01/12 00:09:34;;;;;;;6.75;5.13;;;-4.70;63.90;;;;;;5050808;28;20110;-73
2024/01/12 00:12:00;;;;;;;6.43;4.38;;;-4.70;63.90;;;;;;5050379;28;20049;-73
2024/01/12 00:14:26;;;;;;;12.68;9.10;;;-4.70;63.90;;;;;;5049664;28;20033;-73
2024/01/12 00:16:52;;;;;;;11.15;6.35;;;-4.60;63.80;;;;;;5049601;28;20083;-73
2024/01/12 00:19:19;;;;;;;20.83;10.10;;;-4.60;63.80;;;;;;5049343;28;20033;-73
2024/01/12 00:21:46;;;;;;;8.90;6.78;;;-4.60;63.90;;;;;;5049175;28;20128;-73
2024/01/12 00:24:13;;;;;;;12.60;6.55;;;-4.50;64.10;;;;;;5049799;28;20032;-73
2024/01/12 00:26:39;;;;;;;11.23;6.38;;;-4.50;64.10;;;;;;5050658;28;20033;-73
2024/01/12 00:29:05;;;;;;;12.15;4.65;;;-4.50;64.10;;;;;;5050961;28;20040;-73
2024/01/12 00:31:32;;;;;;;4.55;3.55;;;-4.40;63.90;;;;;;5050212;28;20060;-73
2024/01/12 00:33:58;;;;;;;6.07;4.60;;;-4.40;63.60;;;;;;5049571;28;20041;-73
2024/01/12 00:36:24;;;;;;;12.80;6.45;;;-4.30;63.80;;;;;;5049713;28;20037;-73
2024/01/12 00:38:50;;;;;;;13.85;8.40;;;-4.30;63.90;;;;;;5049122;28;20040;-73
2024/01/12 00:41:16;;;;;;;5.97;3.25;;;-4.30;64.20;;;;;;5050396;28;20029;-73
2024/01/12 00:43:42;;;;;;;20.88;7.88;;;-4.30;64.20;;;;;;5050824;28;20036;-72
2024/01/12 00:46:08;;;;;;;8.25;5.75;;;-4.30;63.90;;;;;;5049475;28;20068;-73
2024/01/12 00:48:34;;;;;;;8.75;5.63;;;-4.20;63.80;;;;;;5050982;28;20029;-73
2024/01/12 00:51:00;;;;;;;16.73;4.85;;;-4.20;63.60;;;;;;5048495;28;20044;-73
2024/01/12 00:53:26;;;;;;;3.78;2.67;;;-4.20;63.60;;;;;;5050800;28;20025;-72
2024/01/12 00:55:53;;;;;;;7.55;6.10;;;-4.10;63.60;;;;;;5050158;28;20041;-73
2024/01/12 00:58:18;;;;;;;;;;;-4.10;63.70;;;;;;5041924;28;20033;-73
2024/01/12 01:00:44;;;;;;;30.17;9.52;;;-4.10;63.10;;;;;;5049099;28;19928;-73
2024/01/12 01:03:11;;;;;;;24.92;9.25;;;-4.10;63.10;;;;;;5049100;28;20493;-73
2024/01/12 01:05:37;;;;;;;9.90;6.32;;;-4.10;63.10;;;;;;5050946;28;20108;-72
2024/01/12 01:08:03;;;;;;;15.05;6.43;;;-4.10;63.00;;;;;;5050247;28;20037;-72
2024/01/12 01:10:29;;;;;;;17.40;6.25;;;-4.10;63.20;;;;;;5053913;28;20052;-73
2024/01/12 01:12:55;;;;;;;6.85;4.68;;;-4.10;63.30;;;;;;5053302;28;20037;-73
2024/01/12 01:15:21;;;;;;;8.40;3.90;;;-4.00;63.20;;;;;;5054357;28;20413;-72
2024/01/12 01:17:47;;;;;;;10.73;5.25;;;-4.00;63.10;;;;;;5053159;28;20063;-73
2024/01/12 01:20:15;;;;;;;8.15;4.45;;;-3.90;63.40;;;;;;5052000;28;20047;-73
2024/01/12 01:22:41;;;;;;;10.05;9.15;;;-3.90;63.40;;;;;;5053071;28;20446;-72
2024/01/12 01:25:07;;;;;;;12.52;7.88;;;-3.90;63.20;;;;;;5053534;28;20044;-72
2024/01/12 01:27:33;;;;;;;;;;;-3.90;63.50;;;;;;5063220;28;20508;-73
2024/01/12 01:30:00;;;;;;;5.20;4.70;;;-3.90;63.90;;;;;;5053290;28;19917;-73
2024/01/12 01:32:26;;;;;;;10.60;7.13;;;-3.90;64.10;;;;;;5053178;28;20033;-73
2024/01/12 01:34:52;;;;;;;9.77;4.22;;;-3.90;64.00;;;;;;5054459;28;20033;-73
2024/01/12 01:37:18;;;;;;;13.00;3.70;;;-3.90;64.20;;;;;;5053654;28;20416;-73
2024/01/12 01:39:44;;;;;;;12.43;8.02;;;-3.90;64.20;;;;;;5054721;28;20094;-73
2024/01/12 01:42:10;;;;;;;7.78;4.30;;;-3.90;65.00;;;;;;5053973;28;20037;-73
2024/01/12 01:44:36;;;;;;;24.45;5.43;;;-3.80;63.90;;;;;;5054201;28;20037;-73
2024/01/12 01:47:03;;;;;;;2.63;2.25;;;-3.90;64.00;;;;;;5035802;28;20132;-73
2024/01/12 01:49:28;;;;;;;;;;;-3.90;64.20;;;;;;5052770;28;20364;-73
2024/01/12 01:51:55;;;;;;;9.82;5.03;;;-4.00;64.20;;;;;;5052000;28;19921;-73
2024/01/12 01:54:21;;;;;;;;;;;-4.00;64.00;;;;;;5036214;28;20402;-73
2024/01/12 01:56:47;;;;;;;8.02;6.07;;;-4.10;64.20;;;;;;5052471;28;20000;-73
2024/01/12 01:59:14;;;;;;;10.15;6.72;;;-4.20;64.20;;;;;;5053734;28;20506;-73
2024/01/12 02:01:41;;;;;;;9.10;4.97;;;-4.20;64.30;;;;;;5051948;28;20045;-73
2024/01/12 02:04:08;;;;;;;13.05;4.93;;;-4.20;64.40;;;;;;5052592;28;20033;-73
2024/01/12 02:06:35;;;;;;;12.80;6.35;;;-4.30;64.70;;;;;;5052234;28;20036;-73
2024/01/12 02:09:04;;;;;;;17.02;7.53;;;-4.30;64.30;;;;;;5053408;28;20041;-73
2024/01/12 02:11:30;;;;;;;27.98;7.65;;;-4.40;64.70;;;;;;5051792;28;20044;-73
2024/01/12 02:13:56;;;;;;;9.35;6.28;;;-4.50;64.50;;;;;;5053615;28;20382;-73
2024/01/12 02:16:23;;;;;;;6.93;4.30;;;-4.50;64.70;;;;;;5051799;28;20521;-73
2024/01/12 02:18:49;;;;;;;12.15;7.07;;;-4.60;65.40;;;;;;5052427;28;20053;-73
2024/01/12 02:21:15;;;;;;;10.18;5.82;;;-4.70;65.50;;;;;;5052581;28;20502;-73
2024/01/12 02:23:41;;;;;;;3.83;2.20;;;-4.70;65.50;;;;;;5068602;28;20033;-73
2024/01/12 02:26:07;;;;;;;11.02;5.93;;;-4.70;65.60;;;;;;5052789;28;20036;-73
2024/01/12 02:28:34;;;;;;;;;;;-4.70;65.50;;;;;;5054052;28;20033;-73
2024/01/12 02:31:00;;;;;;;5.15;2.25;;;-4.80;65.40;;;;;;5051350;28;20412;-73
2024/01/12 02:33:26;;;;;;;12.63;5.60;;;-4.80;65.70;;;;;;5052859;28;20425;-73
2024/01/12 02:35:52;;;;;;;;;;;-4.80;65.80;;;;;;5035487;28;20033;-73
2024/01/12 02:38:18;;;;;;;4.07;2.65;;;-4.90;66.10;;;;;;5051338;28;19927;-73
2024/01/12 02:40:44;;;;;;;4.75;2.45;;;-4.90;66.00;;;;;;5051135;28;20041;-73
2024/01/12 02:43:10;;;;;;;5.75;5.07;;;-4.90;66.10;;;;;;5052853;28;20470;-73
2024/01/12 02:45:37;;;;;;;8.27;4.43;;;-5.00;66.30;;;;;;5051019;28;20404;-73
2024/01/12 02:48:03;;;;;;;9.65;5.35;;;-4.90;66.30;;;;;;5052639;28;20068;-72
2024/01/12 02:50:29;;;;;;;5.93;4.75;;;-5.00;65.40;;;;;;5050252;28;20049;-73
2024/01/12 02:52:55;;;;;;;11.25;4.72;;;-5.00;66.00;;;;;;5052796;28;20040;-73
2024/01/12 02:55:21;;;;;;;;;;;-5.00;66.20;;;;;;5051616;28;20035;-72
2024/01/12 02:57:47;;;;;;;5.82;3.60;;;-5.00;66.20;;;;;;5042143;28;20371;-73
2024/01/12 03:00:14;;;;;;;6.70;5.18;;;-5.00;66.40;;;;;;5050704;28;20060;-73
2024/01/12 03:02:40;;;;;;;13.80;6.00;;;-5.10;65.90;;;;;;5048416;28;20108;-73
2024/01/12 03:05:07;;;;;;;11.40;6.68;;;-5.10;66.40;;;;;;5038964;28;20162;-73
2024/01/12 03:07:33;;;;;;;5.50;3.85;;;-5.10;66.20;;;;;;5062541;28;20076;-73
2024/01/12 03:09:59;;;;;;;;;;;-5.00;67.00;;;;;;5027281;28;20393;-73
2024/01/12 03:12:25;;;;;;;;;;;-5.00;67.20;;;;;;5051267;28;19921;-73
2024/01/12 03:14:51;;;;;;;;;;;-4.90;67.00;;;;;;5034261;28;19929;-73
2024/01/12 03:17:17;;;;;;;;;;;-4.70;67.10;;;;;;5051472;28;19916;-73
2024/01/12 03:19:43;;;;;;;;;;;-4.60;66.50;;;;;;5051206;28;19970;-73
2024/01/12 03:22:09;;;;;;;;;;;-4.50;65.70;;;;;;5052286;28;19991;-72
2024/01/12 03:24:35;;;;;;;;;;;-4.40;66.10;;;;;;5051130;28;19928;-73
2024/01/12 03:27:01;;;;;;;;;;;-4.30;66.00;;;;;;5050885;28;19999;-73
2024/01/12 03:29:27;;;;;;;;;;;-4.30;65.70;;;;;;5051160;28;19927;-72
2024/01/12 03:31:53;;;;;;;;;;;-4.20;65.70;;;;;;5049625;28;19946;-73
2024/01/12 03:34:18;;;;;;;;;;;-4.10;65.60;;;;;;5052494;28;19924;-73
2024/01/12 03:36:44;;;;;;;;;;;-4.10;65.60;;;;;;5050549;28;19917;-73
2024/01/12 03:39:10;;;;;;;;;;;-4.00;65.40;;;;;;5051096;28;19924;-72
2024/01/12 03:41:36;;;;;;;;;;;-4.00;65.30;;;;;;5052261;28;20373;-73
2024/01/12 03:44:02;;;;;;;;;;;-3.90;65.60;;;;;;5034096;28;19929;-73
2024/01/12 03:46:28;;;;;;;;;;;-3.90;65.60;;;;;;5034564;28;20296;-72
2024/01/12 03:48:55;;;;;;;;;;;-3.90;65.80;;;;;;5050871;28;19924;-73
2024/01/12 03:51:21;;;;;;;;;;;-3.80;65.60;;;;;;5050429;28;19921;-73
2024/01/12 03:53:47;;;;;;;;;;;-3.80;65.60;;;;;;5052263;28;19927;-73
2024/01/12 03:56:13;;;;;;;;;;;-3.80;65.60;;;;;;5050000;28;19951;-73
2024/01/12 03:58:39;;;;;;;;;;;-3.70;65.90;;;;;;5050606;28;19920;-73
2024/01/12 04:01:07;;;;;;;;;;;-3.70;65.30;;;;;;5049834;28;19929;-73
2024/01/12 04:03:33;;;;;;;;;;;-3.70;65.70;;;;;;5034015;28;19921;-73
2024/01/12 04:05:59;;;;;;;;;;;-3.70;65.80;;;;;;5033481;28;19924;-73
2024/01/12 04:08:25;;;;;;;;;;;-3.60;65.70;;;;;;5050401;28;20357;-73
2024/01/12 04:10:51;;;;;;;;;;;-3.60;66.40;;;;;;5049665;28;20377;-73
2024/01/12 04:13:17;;;;;;;;;;;-3.60;65.40;;;;;;5051855;28;19924;-73
2024/01/12 04:15:43;;;;;;;;;;;-3.70;65.40;;;;;;5033574;28;19952;-73
2024/01/12 04:18:09;;;;;;;;;;;-3.70;65.40;;;;;;5050013;28;19951;-73
2024/01/12 04:20:35;;;;;;;;;;;-3.80;65.00;;;;;;5049504;28;19975;-73
2024/01/12 04:23:01;;;;;;;;;;;-3.80;65.80;;;;;;5051372;28;20425;-73
2024/01/12 04:25:27;;;;;;;;;;;-3.80;65.90;;;;;;5050226;28;19921;-73
2024/01/12 04:27:53;;;;;;;;;;;-3.90;66.20;;;;;;5051353;28;19924;-73
2024/01/12 04:30:19;;;;;;;;;;;-3.90;66.50;;;;;;5050855;28;19920;-73
2024/01/12 04:32:45;;;;;;;;;;;-3.90;66.50;;;;;;5050166;28;20308;-73
2024/01/12 04:35:11;;;;;;;;;;;-3.90;66.60;;;;;;5051352;28;19971;-73
2024/01/12 04:37:37;;;;;;;;;;;-3.80;66.70;;;;;;5050032;28;19979;-73
2024/01/12 04:40:04;;;;;;;;;;;-3.80;66.20;;;;;;5049147;28;19916;-73
2024/01/12 04:42:29;;;;;;;;;;;-3.80;65.90;;;;;;5050076;28;19919;-73
2024/01/12 04:44:55;;;;;;;;;;;-3.80;66.00;;;;;;5053594;28;19916;-73
2024/01/12 04:47:21;;;;;;;;;;;-3.90;66.40;;;;;;5055468;28;19940;-73
2024/01/12 04:49:47;;;;;;;;;;;-3.90;66.40;;;;;;5055813;28;19921;-73
2024/01/12 04:52:13;;;;;;;;;;;-3.80;66.40;;;;;;5044180;28;19924;-73
2024/01/12 04:54:39;;;;;;;;;;;-3.80;66.30;;;;;;5055647;28;19920;-72
2024/01/12 04:57:05;;;;;;;;;;;-3.90;66.30;;;;;;5054805;28;19921;-73
2024/01/12 04:59:31;;;;;;;;;;;-3.90;66.40;;;;;;5054094;28;19920;-73
2024/01/12 05:01:57;;;;;;;;;;;-4.00;65.80;;;;;;5053255;28;20353;-73
2024/01/12 05:04:23;;;;;;;;;;;-4.10;66.90;;;;;;5054865;28;19928;-73
2024/01/12 05:06:48;;;;;;;;;;;-4.10;66.90;;;;;;5055008;28;20284;-73
2024/01/12 05:09:15;;;;;;;;;;;-4.10;66.90;;;;;;5054994;28;20328;-73
2024/01/12 05:11:41;;;;;;;;;;;-4.20;67.10;;;;;;5054913;28;19943;-73
2024/01/12 05:14:07;;;;;;;;;;;-4.20;66.40;;;;;;5037652;28;19921;-73
2024/01/12 05:16:33;;;;;;;;;;;-4.20;67.30;;;;;;5036920;28;19920;-73
2024/01/12 05:18:59;;;;;;;;;;;-4.30;67.40;;;;;;5053402;28;19967;-73
2024/01/12 05:21:25;;;;;;;;;;;-4.30;67.40;;;;;;5054239;28;19920;-73
2024/01/12 05:23:51;;;;;;;;;;;-4.30;67.30;;;;;;5053622;28;19924;-73
2024/01/12 05:26:17;;;;;;;;;;;-4.30;67.40;;;;;;5053004;28;19923;-73
2024/01/12 05:28:42;;;;;;;;;;;-4.40;67.20;;;;;;5055059;28;19920;-73
2024/01/12 05:31:09;;;;;;;;;;;-4.40;67.10;;;;;;5054146;28;19921;-73
2024/01/12 05:33:35;;;;;;;;;;;-4.40;67.00;;;;;;5052945;28;19924;-73
2024/01/12 05:36:01;;;;;;;;;;;-4.30;67.20;;;;;;5053069;28;19974;-73
2024/01/12 05:38:27;;;;;;;;;;;-4.30;67.50;;;;;;5053007;28;19924;-73
2024/01/12 05:40:53;;;;;;;;;;;-4.30;67.20;;;;;;5052032;28;19920;-73
2024/01/12 05:43:19;;;;;;;;;;;-4.30;67.20;;;;;;5053109;28;20365;-73
2024/01/12 05:45:45;;;;;;;;;;;-4.20;66.90;;;;;;5054025;28;19970;-73
2024/01/12 05:48:12;;;;;;;;;;;-4.10;66.50;;;;;;5054518;28;19926;-73
2024/01/12 05:50:38;;;;;;;;;;;-4.10;66.20;;;;;;5052115;28;20430;-73
2024/01/12 05:53:05;;;;;;;;;;;-4.10;65.60;;;;;;5035804;28;19924;-73
2024/01/12 05:55:31;;;;;;;;;;;-4.10;65.90;;;;;;5035444;28;19917;-73
2024/01/12 05:57:57;;;;;;;;;;;-4.10;66.20;;;;;;5052158;28;19927;-73
2024/01/12 06:00:23;;;;;;;;;;;-4.10;66.60;;;;;;5053232;28;20426;-73
2024/01/12 06:02:49;;;;;;;;;;;-4.20;66.60;;;;;;5036491;28;19920;-73
2024/01/12 06:05:15;;;;;;;;;;;-4.20;66.80;;;;;;5040230;28;19960;-73
2024/01/12 06:07:40;;;;;;;;;;;-4.30;66.80;;;;;;5052714;28;19970;-73
2024/01/12 06:12:53;;;;;;;;;;;-4.40;66.80;;;;;;5057038;28;19924;-73
2024/01/12 06:15:19;;;;;;;;;;;-4.40;67.10;;;;;;5040655;28;20019;-73
2024/01/12 06:17:45;;;;;;;;;;;-4.50;67.30;;;;;;5050493;28;19924;-73
2024/01/12 06:20:11;;;;;;;;;;;-4.60;67.40;;;;;;5052911;28;20723;-73
2024/01/12 06:22:37;;;;;;;;;;;-4.50;66.60;;;;;;5041748;28;19917;-73
2024/01/12 06:25:03;;;;;;;;;;;-4.50;67.10;;;;;;5034074;28;20329;-73
2024/01/12 06:27:29;;;;;;;;;;;-4.50;66.50;;;;;;5039015;28;20460;-73
2024/01/12 06:29:55;;;;;;;;;;;-4.60;66.90;;;;;;5041005;28;19924;-73
2024/01/12 06:32:21;;;;;;;;;;;-4.50;67.10;;;;;;5040303;28;19920;-73
2024/01/12 06:34:47;;;;;;;;;;;-4.50;66.90;;;;;;5043688;28;19974;-73
2024/01/12 06:37:13;;;;;;;;;;;-4.60;67.00;;;;;;5045100;28;19923;-73
2024/01/12 06:39:42;;;;;;;;;;;-4.60;67.20;;;;;;5056595;28;19927;-73
2024/01/12 06:42:08;;;;;;;;;;;-4.70;67.50;;;;;;5033747;28;20329;-73
2024/01/12 06:44:39;;;;;;;;;;;-4.70;67.60;;;;;;5057252;28;19935;-73
2024/01/12 06:47:06;;;;;;;;;;;-4.70;67.70;;;;;;5048484;28;20012;-73
2024/01/12 06:49:32;;;;;;;;;;;-4.80;67.70;;;;;;5033188;28;19929;-73
2024/01/12 06:51:58;;;;;;;;;;;-4.80;67.60;;;;;;5043068;28;19935;-73
2024/01/12 06:54:24;;;;;;;;;;;-4.80;67.30;;;;;;5036376;28;20337;-73
2024/01/12 06:56:52;;;;;;;;;;;-4.80;67.10;;;;;;5057129;28;19923;-73
2024/01/12 06:59:18;;;;;;;;;;;-4.80;66.90;;;;;;5033775;28;20418;-73
2024/01/12 07:01:44;;;;;;;;;;;-4.80;66.10;;;;;;5033570;28;19924;-74
2024/01/12 07:04:10;;;;;;;;;;;-4.80;66.80;;;;;;5050493;28;19921;-73
2024/01/12 07:06:36;;;;;;;;;;;-4.80;66.90;;;;;;5042391;28;19927;-73
2024/01/12 07:09:02;;;;;;;;;;;-4.80;66.90;;;;;;5049141;28;20415;-73
2024/01/12 07:11:28;;;;;;;;;;;-4.70;66.70;;;;;;5047028;28;19920;-73
2024/01/12 07:13:54;;;;;;;;;;;-4.70;66.60;;;;;;5041044;28;20019;-73
2024/01/12 07:16:20;;;;;;;;;;;-4.60;66.40;;;;;;5042772;28;19918;-73
2024/01/12 07:18:46;;;;;;;;;;;-4.50;66.30;;;;;;5042327;28;19974;-73
2024/01/12 07:21:12;;;;;;;;;;;-4.50;66.20;;;;;;5041608;28;20894;-73
2024/01/12 07:23:37;;;;;;;;;;;-4.50;66.00;;;;;;5045889;28;19927;-73
2024/01/12 07:26:03;;;;;;;;;;;-4.50;66.10;;;;;;5049267;28;19924;-73
2024/01/12 07:28:30;;;;;;;;;;;-4.40;66.10;;;;;;5033964;28;20367;-73
2024/01/12 07:30:56;;;;;;;;;;;-4.40;66.30;;;;;;5035308;28;19927;-73
2024/01/12 07:33:22;;;;;;;;;;;-4.30;66.30;;;;;;5059758;28;20361;-73
2024/01/12 07:35:48;;;;;;;;;;;-4.30;66.30;;;;;;5038027;28;19924;-73
2024/01/12 07:38:14;;;;;;;;;;;-4.30;66.30;;;;;;5038956;28;19929;-73
2024/01/12 07:40:40;;;;;;;;;;;-4.20;66.10;;;;;;5039678;28;19927;-73
2024/01/12 07:43:06;;;;;;;;;;;-4.10;66.00;;;;;;5031448;28;20287;-73
2024/01/12 07:45:31;;;;;;;;;;;-4.10;66.20;;;;;;5036691;28;19923;-73
2024/01/12 07:47:57;;;;;;;;;;;-4.10;66.50;;;;;;5044220;28;20311;-73
2024/01/12 07:50:23;;;;;;;;;;;-4.00;66.30;;;;;;5034271;28;19929;-73
2024/01/12 07:52:49;;;;;;;;;;;-3.90;66.10;;;;;;5043561;28;19925;-73
2024/01/12 07:55:15;;;;;;;;;;;-3.80;65.90;;;;;;5033264;28;19917;-73
2024/01/12 07:57:41;;;;;;;;;;;-3.70;65.40;;;;;;5037267;28;19970;-73
2024/01/12 08:00:07;;;;;;;;;;;-3.60;65.30;;;;;;5034779;28;20374;-73
2024/01/12 08:02:33;;;;;;;;;;;-3.60;64.80;;;;;;5036755;28;19963;-73
2024/01/12 08:04:59;;;;;;;;;;;-3.50;64.80;;;;;;5025898;28;20003;-73
2024/01/12 08:07:26;;;;;;;;;;;-3.40;64.80;;;;;;5046855;28;19928;-73
2024/01/12 08:09:52;;;;;;;;;;;-3.40;64.60;;;;;;5057029;28;19920;-73
2024/01/12 08:12:19;;;;;;;;;;;-3.40;64.60;;;;;;5062361;28;19927;-73
2024/01/12 08:14:45;;;;;;;;;;;-3.30;64.60;;;;;;5046635;28;20370;-73
2024/01/12 08:17:11;;;;;;;;;;;-3.30;64.50;;;;;;5038166;28;19921;-73
2024/01/12 08:19:36;;;;;;;;;;;-3.30;64.60;;;;;;5047532;28;19921;-72
2024/01/12 08:22:02;;;;;;;;;;;-3.20;64.60;;;;;;5046094;28;19920;-73
2024/01/12 08:24:28;;;;;;;;;;;-3.10;64.50;;;;;;5041522;28;19932;-73
2024/01/12 08:26:54;;;;;;;;;;;-3.00;64.40;;;;;;5036031;28;20394;-73
2024/01/12 08:29:20;;;;;;;;;;;-2.90;64.30;;;;;;5046789;28;19921;-73
2024/01/12 08:31:49;;;;;;;;;;;-2.80;64.30;;;;;;5033007;28;20291;-74
2024/01/12 08:34:15;;;;;;;;;;;-2.80;64.00;;;;;;5034861;28;19921;-73
2024/01/12 08:36:41;;;;;;;;;;;-2.70;64.20;;;;;;5063495;28;19948;-73
2024/01/12 08:39:07;;;;;;;;;;;-2.70;63.90;;;;;;5032592;28;19975;-73
2024/01/12 08:41:33;;;;;;;;;;;-2.60;63.60;;;;;;5037334;28;19928;-73
2024/01/12 08:43:59;;;;;;;;;;;-2.60;63.70;;;;;;5031386;28;19921;-74
2024/01/12 08:46:25;;;;;;;;;;;-2.60;63.80;;;;;;5040828;28;20002;-73
2024/01/12 08:48:52;;;;;;;;;;;-2.40;63.50;;;;;;5045297;28;19920;-73
2024/01/12 08:51:18;;;;;;;;;;;-2.40;63.70;;;;;;5046247;28;20444;-73
2024/01/12 08:53:44;;;;;;;;;;;-2.30;63.70;;;;;;5062605;28;20027;-73
2024/01/12 08:56:09;;;;;;;;;;;-2.20;63.70;;;;;;5046143;28;19916;-73
2024/01/12 08:58:37;;;;;;;;;;;-2.00;63.50;;;;;;5042446;28;19929;-73
2024/01/12 09:01:03;;;;;;;;;;;-1.90;63.20;;;;;;5035691;28;19928;-73
2024/01/12 09:03:29;;;;;;;;;;;-1.90;63.10;;;;;;5040786;28;19928;-73
2024/01/12 09:05:55;;;;;;;;;;;-1.80;63.20;;;;;;5038137;28;20367;-73
2024/01/12 09:08:21;;;;;;;;;;;-1.70;63.20;;;;;;5048106;28;19931;-73
2024/01/12 09:10:47;;;;;;;;;;;-1.60;63.00;;;;;;5037092;28;19947;-73
2024/01/12 09:13:13;;;;;;;;;;;-1.60;62.80;;;;;;5047171;28;19988;-73
2024/01/12 09:15:39;;;;;;;;;;;-1.50;62.80;;;;;;5044363;28;19944;-73
2024/01/12 09:18:06;;;;;;;;;;;-1.50;62.90;;;;;;5051782;28;19928;-73
2024/01/12 09:20:32;;;;;;;;;;;-1.30;62.50;;;;;;5043549;28;19927;-73
2024/01/12 09:22:59;;;;;;;;;;;-1.20;62.30;;;;;;5048499;28;19920;-73
2024/01/12 09:25:25;;;;;;;;;;;-1.20;61.80;;;;;;5037507;28;19925;-73
2024/01/12 09:27:52;;;;;;;;;;;-1.00;62.20;;;;;;5034907;28;19921;-73
2024/01/12 09:30:19;;;;;;;;;;;-1.00;62.20;;;;;;5036975;28;19917;-72
2024/01/12 09:32:45;;;;;;;;;;;-0.80;61.70;;;;;;5040240;28;19925;-73
2024/01/12 09:35:11;;;;;;;;;;;-0.70;61.90;;;;;;5063793;28;19924;-73
2024/01/12 09:37:37;;;;;;;;;;;-0.60;61.80;;;;;;5037550;28;20007;-73
2024/01/12 09:40:03;;;;;;;;;;;-0.50;61.80;;;;;;5053862;28;20026;-73
2024/01/12 09:42:32;;;;;;;;;;;-0.50;61.70;;;;;;5052672;28;19921;-73
2024/01/12 09:44:59;;;;;;;;;;;-0.40;61.50;;;;;;5042106;28;19931;-73
2024/01/12 09:47:26;;;;;;;;;;;-0.40;61.90;;;;;;5034985;28;19921;-73
2024/01/12 09:49:53;;;;;;;;;;;-0.20;61.60;;;;;;5033845;28;19960;-73
2024/01/12 09:52:19;;;;;;;;;;;-0.10;61.70;;;;;;5033276;28;19926;-73
2024/01/12 09:54:57;;;;;;;;;;;0.20;61.20;;;;;;5041702;28;19979;-73
2024/01/12 09:57:24;;;;;;;;;;;0.50;60.50;;;;;;5049156;28;19932;-73
2024/01/12 09:59:50;;;;;;;;;;;0.60;59.50;;;;;;5040880;28;19925;-73
2024/01/12 10:02:17;;;;;;;;;;;0.70;59.50;;;;;;5045695;28;19920;-73
2024/01/12 10:04:43;;;;;;;;;;;0.90;59.50;;;;;;5036253;28;19956;-73
2024/01/12 10:07:09;;;;;;;;;;;1.20;58.60;;;;;;5034417;28;20293;-73
2024/01/12 10:09:35;;;;;;;;;;;1.30;58.50;;;;;;5057588;28;20301;-73
2024/01/12 10:12:01;;;;;;;;;;;1.20;58.30;;;;;;5054699;28;19986;-73
2024/01/12 10:14:27;;;;;;;;;;;1.20;58.70;;;;;;5034210;28;19924;-73
2024/01/12 10:16:54;;;;;;;;;;;1.10;59.20;;;;;;5054415;28;19917;-73
2024/01/12 10:19:20;;;;;;;;;;;1.10;59.20;;;;;;5052403;28;19948;-73
2024/01/12 10:21:47;;;;;;;;;;;1.20;59.30;;;;;;5051525;28;19921;-73
2024/01/12 10:24:17;;;;;;;;;;;1.10;59.50;;;;;;5041324;28;19971;-73
2024/01/12 10:26:46;;;;;;;;;;;1.10;59.50;;;;;;5057552;28;19952;-73
2024/01/12 10:29:31;;;;;;;;;;;1.20;59.20;;;;;;5033299;28;20400;-73
2024/01/12 10:32:01;;;;;;;;;;;1.20;59.20;;;;;;5049689;28;20366;-73
2024/01/12 10:34:33;;;;;;;;;;;1.20;59.20;;;;;;5038595;28;19944;-73
2024/01/12 10:36:59;;;;;;;;;;;1.40;59.40;;;;;;5041433;28;19979;-73
2024/01/12 10:39:29;;;;;;;;;;;1.90;58.00;;;;;;5053919;28;20405;-73
2024/01/12 10:41:57;;;;;;;;;;;2.10;57.60;;;;;;5040653;28;19928;-73
2024/01/12 10:44:26;;;;;;;;;;;2.10;57.40;;;;;;5032924;28;20324;-73
2024/01/12 10:46:56;;;;;;;;;;;2.10;57.30;;;;;;5058490;28;19917;-74
2024/01/12 10:50:00;;;;;;;;;;;2.00;57.50;;;;;;5051007;28;19921;-74
2024/01/12 10:52:35;;;;;;;;;;;2.00;57.80;;;;;;5044589;28;19975;-73
2024/01/12 10:55:07;;;;;;;;;;;2.60;57.30;;;;;;5035417;28;19964;-73
2024/01/12 10:57:33;;;;;;;;;;;3.10;55.30;;;;;;5038728;28;19995;-73
2024/01/12 11:00:00;;;;;;;;;;;3.10;54.80;;;;;;5042664;28;19963;-73
2024/01/12 11:02:26;;;;;;;;;;;3.00;53.90;;;;;;5031978;28;19921;-73
2024/01/12 11:04:53;;;;;;;;;;;2.90;54.70;;;;;;5041681;28;20423;-73
2024/01/12 11:07:19;;;;;;;;;;;3.10;54.90;;;;;;5066305;28;19921;-73
2024/01/12 11:09:45;;;;;;;;;;;3.20;54.90;;;;;;5032568;28;19990;-72
2024/01/12 11:12:18;;;;;;;;;;;3.50;55.30;;;;;;5032894;28;19921;-73
2024/01/12 11:14:44;;;;;;;;;;;3.50;54.00;;;;;;5048845;28;19970;-72
2024/01/12 11:17:12;;;;;;;;;;;3.90;53.40;;;;;;5039512;28;19920;-73
2024/01/12 11:19:38;;;;;;;;;;;4.80;51.30;;;;;;5041670;28;19920;-73
2024/01/12 11:22:23;;;;;;;;;;;5.50;50.40;;;;;;5017853;28;20405;-73
2024/01/12 11:24:49;;;;;;;;;;;6.20;47.90;;;;;;5043955;28;19925;-73
2024/01/12 11:27:14;;;;;;;;;;;6.60;47.20;;;;;;5056609;28;19920;-72
2024/01/12 11:29:41;;;;;;;;;;;7.60;45.20;;;;;;5050468;28;20099;-72
2024/01/12 11:32:07;;;;;;;;;;;7.70;44.50;;;;;;5037368;28;19921;-73
2024/01/12 11:34:34;;;;;;;;;;;8.50;43.70;;;;;;5052319;28;19943;-72
2024/01/12 11:37:01;;;;;;;;;;;9.00;41.30;;;;;;5034545;28;20458;-73
2024/01/12 11:39:32;;;;;;;;;;;9.20;40.60;;;;;;5040615;28;19920;-73
2024/01/12 11:42:00;;;;;;;;;;;9.20;40.50;;;;;;5038358;28;19921;-73
2024/01/12 11:44:26;;;;;;;;;;;8.90;40.30;;;;;;5047770;28;19952;-73
2024/01/12 11:46:52;;;;;;;;;;;8.40;41.50;;;;;;5037469;28;19924;-73
2024/01/12 11:49:19;;;;;;;;;;;8.10;43.30;;;;;;5036750;28;19924;-72
2024/01/12 11:51:45;;;;;;;;;;;7.90;42.60;;;;;;5059749;28;20018;-73
2024/01/12 11:54:11;;;;;;;;;;;8.10;42.70;;;;;;5051959;28;19920;-73
2024/01/12 11:56:37;;;;;;;;;;;8.80;41.50;;;;;;5035240;28;20397;-73
2024/01/12 11:59:03;;;;;;;;;;;8.70;41.60;;;;;;5049209;28;19920;-73
2024/01/12 12:01:29;;;;;;;;;;;8.80;41.80;;;;;;5032684;28;19936;-72
2024/01/12 12:03:55;;;;;;;;;;;8.80;42.00;;;;;;5042237;28;20446;-73
2024/01/12 12:06:21;;;;;;;;;;;9.50;40.80;;;;;;5046361;28;20019;-73
2024/01/12 12:08:48;;;;;;;;;;;10.00;39.40;;;;;;5033213;28;19921;-73
2024/01/12 12:11:14;;;;;;;;;;;10.40;37.60;;;;;;5048028;28;20320;-73
2024/01/12 12:13:41;;;;;;;;;;;10.40;37.20;;;;;;5038757;28;19929;-73
2024/01/12 12:16:08;;;;;;;;;;;10.00;38.40;;;;;;5031937;28;20007;-73
2024/01/12 12:18:37;;;;;;;;;;;9.60;38.50;;;;;;5038312;28;19940;-73
2024/01/12 12:21:03;;;;;;;;;;;9.20;39.80;;;;;;5059766;28;19921;-73
2024/01/12 12:23:29;;;;;;;;;;;8.70;39.80;;;;;;5039875;28;19921;-73
2024/01/12 12:25:56;;;;;;;;;;;8.50;40.40;;;;;;5031006;28;19924;-73
2024/01/12 12:28:22;;;;;;;;;;;8.50;41.20;;;;;;5047555;28;19921;-73
2024/01/12 12:30:50;;;;;;;;;;;8.80;40.30;;;;;;5045907;28;20356;-73
2024/01/12 12:33:16;;;;;;;;;;;8.60;40.30;;;;;;5039230;28;19960;-73
2024/01/12 12:35:42;;;;;;;;;;;8.50;40.90;;;;;;5046222;28;19927;-73
2024/01/12 12:38:08;;;;;;;;;;;8.70;40.70;;;;;;5047268;28;20083;-73
2024/01/12 12:40:34;;;;;;;;;;;8.90;39.90;;;;;;5047852;28;19929;-73
2024/01/12 12:43:00;;;;;;;;;;;8.70;40.20;;;;;;5054270;28;20447;-73
2024/01/12 12:45:27;;;;;;;;;;;8.30;41.20;;;;;;5030446;28;19963;-73
2024/01/12 12:47:53;;;;;;;;;;;8.10;40.70;;;;;;5054688;28;19921;-73
2024/01/12 12:53:04;;;;;;;;;;;8.00;41.70;;;;;;5049862;28;20277;-73
2024/01/12 12:55:30;;;;;;;;;;;8.30;40.50;;;;;;5056101;28;19925;-73
2024/01/12 12:57:55;;;;;;;;;;;8.50;40.50;;;;;;5030599;28;19974;-73
2024/01/12 13:00:21;;;;;;;;;;;8.80;39.80;;;;;;5053236;28;20284;-73
2024/01/12 13:02:47;;;;;;;;;;;8.70;39.80;;;;;;5054028;28;19924;-73
2024/01/12 13:05:15;;;;;;;;;;;9.10;39.90;;;;;;5036757;28;19924;-74
2024/01/12 13:07:41;;;;;;;;;;;9.30;39.40;;;;;;5034419;28;20348;-73
2024/01/12 13:10:08;;;;;;;;;;;9.20;39.60;;;;;;5034362;28;19917;-73
2024/01/12 13:12:33;;;;;;;;;;;9.30;39.10;;;;;;5055027;28;20303;-73
2024/01/12 13:14:59;;;;;;;;;;;9.50;39.40;;;;;;5050959;28;19917;-73
2024/01/12 13:17:26;;;;;;;;;;;9.70;37.50;;;;;;5056991;28;20365;-73
2024/01/12 13:19:52;;;;;;;;;;;10.50;37.00;;;;;;5047182;28;20358;-74
2024/01/12 13:22:18;;;;;;;;;;;10.60;36.10;;;;;;5053126;28;19921;-73
2024/01/12 13:24:44;;;;;;;;;;;9.90;35.60;;;;;;5041377;28;19925;-73
2024/01/12 13:27:11;;;;;;;;;;;9.20;36.20;;;;;;5045949;28;20326;-73
2024/01/12 13:29:37;;;;;;;;;;;8.70;37.60;;;;;;5051371;28;19936;-73
2024/01/12 13:32:03;;;;;;;;;;;8.40;38.60;;;;;;5040016;28;20033;-73
2024/01/12 13:34:29;;;;;;;;;;;8.10;39.40;;;;;;5050576;28;20015;-74
2024/01/12 13:37:00;;;;;;;;;;;7.90;40.00;;;;;;5043003;28;19928;-73
2024/01/12 13:39:26;;;;;;;;;;;7.60;39.90;;;;;;5035699;28;19944;-73
2024/01/12 13:41:52;;;;;;;;;;;7.50;39.80;;;;;;5060857;28;19925;-73
2024/01/12 13:44:18;;;;;;;;;;;7.30;39.70;;;;;;5054010;28;19921;-73
2024/01/12 13:46:44;;;;;;;;;;;7.20;40.40;;;;;;5033776;28;19927;-73
2024/01/12 13:49:10;;;;;;;;;;;7.10;41.20;;;;;;5056256;28;19920;-73
2024/01/12 13:51:36;;;;;;;;;;;7.00;41.50;;;;;;5043330;28;19928;-73
2024/01/12 13:56:46;;;;;;;;;;;6.70;42.30;;;;;;5035153;28;19924;-73
2024/01/12 13:59:12;;;;;;;;;;;6.60;42.70;;;;;;5057355;28;19932;-73
2024/01/12 14:01:39;;;;;;;;;;;6.50;43.00;;;;;;5053887;28;19921;-73
2024/01/12 14:04:05;;;;;;;;;;;6.40;43.10;;;;;;5042575;28;19978;-73